Time;durP1;ratioP1;P1;durP2;ratioP2;P2;SDS_P1;SDS_P2;PMS_P1;PMS_P2;Temp;Humidity;BMP_temperature;BMP_pressure;BME280_temperature;BME280_humidity;BME280_pressure;Samples;Min_cycle;Max_cycle;Signal;HPM_P1;HPM_P2
2021/09/16 00:00:24;;;;;;;2.95;2.30;;;24.40;61.00;;;;;;4944982;29;20390;-65
2021/09/16 00:02:50;;;;;;;2.70;2.33;;;24.40;61.00;;;;;;4949168;28;20433;-67
2021/09/16 00:05:17;;;;;;;2.88;2.30;;;24.40;61.00;;;;;;4943271;29;20767;-66
2021/09/16 00:07:44;;;;;;;2.35;2.10;;;24.40;61.00;;;;;;4944565;28;20433;-66
2021/09/16 00:10:11;;;;;;;2.53;2.13;;;24.30;61.00;;;;;;4945096;28;20401;-69
2021/09/16 00:12:37;;;;;;;3.17;2.33;;;24.40;61.00;;;;;;4944928;28;20412;-68
2021/09/16 00:15:05;;;;;;;2.97;2.20;;;24.30;60.90;;;;;;4944872;29;20402;-68
2021/09/16 00:17:31;;;;;;;2.58;2.10;;;24.30;60.90;;;;;;4944033;28;20437;-68
2021/09/16 00:19:57;;;;;;;2.97;2.25;;;24.30;60.90;;;;;;4944550;29;20394;-69
2021/09/16 00:22:23;;;;;;;2.60;2.20;;;24.30;60.90;;;;;;4944920;29;20803;-68
2021/09/16 00:24:48;;;;;;;2.35;1.90;;;24.30;60.90;;;;;;4944611;29;20398;-68
2021/09/16 00:27:14;;;;;;;2.73;2.23;;;24.40;61.00;;;;;;4944877;29;20413;-68
2021/09/16 00:29:40;;;;;;;2.67;2.30;;;24.30;60.90;;;;;;4942828;29;20418;-68
2021/09/16 00:32:06;;;;;;;3.43;2.10;;;24.30;60.90;;;;;;4944565;29;20398;-67
2021/09/16 00:34:31;;;;;;;2.45;1.90;;;24.30;60.90;;;;;;4944642;29;20438;-68
2021/09/16 00:36:57;;;;;;;2.43;2.00;;;24.30;60.90;;;;;;4944531;29;20434;-66
2021/09/16 00:39:23;;;;;;;2.40;2.20;;;24.30;60.90;;;;;;4944442;28;20397;-64
2021/09/16 00:41:48;;;;;;;2.90;2.10;;;24.30;61.00;;;;;;4944085;29;20417;-67
2021/09/16 00:44:14;;;;;;;3.37;2.10;;;24.30;61.00;;;;;;4944561;29;20429;-69
2021/09/16 00:46:39;;;;;;;2.58;2.00;;;24.30;61.00;;;;;;4944410;29;20397;-68
2021/09/16 00:49:06;;;;;;;2.43;2.20;;;24.30;61.00;;;;;;4944524;29;20394;-68
2021/09/16 00:51:34;;;;;;;2.00;1.80;;;24.30;61.00;;;;;;4943638;29;20951;-64
2021/09/16 00:54:01;;;;;;;2.47;1.85;;;24.30;61.00;;;;;;4944201;29;20410;-67
2021/09/16 00:56:28;;;;;;;2.50;2.00;;;24.30;61.00;;;;;;4944289;29;20390;-68
2021/09/16 00:58:56;;;;;;;2.10;1.90;;;24.30;61.00;;;;;;4944498;29;20429;-69
2021/09/16 01:01:22;;;;;;;2.50;2.00;;;24.20;61.00;;;;;;4944394;29;20403;-68
2021/09/16 01:03:48;;;;;;;2.85;2.00;;;24.30;61.00;;;;;;4943737;29;20425;-68
2021/09/16 01:06:13;;;;;;;2.35;2.08;;;24.30;61.00;;;;;;4943953;29;20937;-67
2021/09/16 01:08:39;;;;;;;2.87;2.00;;;24.30;61.00;;;;;;4944223;29;20489;-67
2021/09/16 01:11:05;;;;;;;2.33;1.73;;;24.30;61.00;;;;;;4944397;29;20429;-68
2021/09/16 01:13:31;;;;;;;2.47;1.67;;;24.30;61.00;;;;;;4943794;29;20895;-66
2021/09/16 01:15:58;;;;;;;2.70;1.90;;;24.20;60.90;;;;;;4946637;28;20398;-69
2021/09/16 01:18:25;;;;;;;2.20;1.90;;;24.30;61.00;;;;;;4947794;29;20410;-68
2021/09/16 01:20:51;;;;;;;2.42;1.80;;;24.20;60.90;;;;;;4946500;29;20488;-67
2021/09/16 01:23:16;;;;;;;2.38;1.83;;;24.20;60.90;;;;;;4948115;29;20432;-69
2021/09/16 01:25:43;;;;;;;2.30;1.80;;;24.20;60.90;;;;;;4947258;29;20405;-67
2021/09/16 01:28:08;;;;;;;2.23;1.63;;;24.20;60.90;;;;;;4947692;29;20461;-70
2021/09/16 01:30:34;;;;;;;2.30;1.80;;;24.20;61.00;;;;;;4946894;29;20492;-68
2021/09/16 01:33:00;;;;;;;2.40;1.80;;;24.20;60.90;;;;;;4947577;29;20398;-69
2021/09/16 01:35:27;;;;;;;2.00;1.65;;;24.20;61.00;;;;;;4945659;29;20394;-65
2021/09/16 01:37:54;;;;;;;1.90;1.48;;;24.20;60.90;;;;;;4947445;29;21454;-68
2021/09/16 01:40:20;;;;;;;2.00;1.55;;;24.20;61.00;;;;;;4947669;29;20404;-67
2021/09/16 01:42:46;;;;;;;2.00;1.70;;;24.20;60.90;;;;;;4947223;28;20426;-68
2021/09/16 01:45:17;;;;;;;2.30;1.70;;;24.20;61.00;;;;;;4947427;29;20902;-68
2021/09/16 01:47:44;;;;;;;2.05;1.60;;;24.20;60.90;;;;;;4947012;29;20405;-68
2021/09/16 01:50:12;;;;;;;1.98;1.60;;;24.20;60.90;;;;;;4947512;29;20401;-69
2021/09/16 01:52:38;;;;;;;2.10;1.80;;;24.20;60.90;;;;;;4947324;29;20393;-66
2021/09/16 01:55:04;;;;;;;3.20;1.90;;;24.20;60.90;;;;;;4945698;29;20397;-66
2021/09/16 01:57:30;;;;;;;2.10;1.50;;;24.20;60.90;;;;;;4947034;29;20402;-69
2021/09/16 01:59:55;;;;;;;2.17;1.58;;;24.20;60.90;;;;;;4946753;29;21169;-67
2021/09/16 02:02:21;;;;;;;1.92;1.45;;;24.20;60.90;;;;;;4945904;28;20453;-69
2021/09/16 02:04:47;;;;;;;2.22;1.52;;;24.20;60.90;;;;;;4947028;29;20533;-68
2021/09/16 02:07:12;;;;;;;1.90;1.30;;;24.20;60.90;;;;;;4947257;29;20939;-67
2021/09/16 02:09:38;;;;;;;1.97;1.50;;;24.20;60.90;;;;;;4946488;29;20390;-67
2021/09/16 02:12:05;;;;;;;2.30;1.60;;;24.20;60.90;;;;;;4938475;29;20397;-65
2021/09/16 02:14:31;;;;;;;2.05;1.63;;;24.20;60.90;;;;;;4945568;29;20588;-69
2021/09/16 02:16:56;;;;;;;1.80;1.42;;;24.20;61.00;;;;;;4946743;29;21389;-67
2021/09/16 02:19:22;;;;;;;2.17;1.60;;;24.20;61.00;;;;;;4961919;28;20751;-70
2021/09/16 02:21:47;;;;;;;1.90;1.50;;;24.20;60.90;;;;;;4946231;29;20398;-66
2021/09/16 02:24:13;;;;;;;1.65;1.30;;;24.20;60.90;;;;;;4946914;29;20433;-69
2021/09/16 02:26:39;;;;;;;2.00;1.33;;;24.20;60.90;;;;;;4945747;28;20394;-68
2021/09/16 02:29:04;;;;;;;2.10;1.60;;;24.20;60.90;;;;;;4946884;29;20409;-69
2021/09/16 02:31:30;;;;;;;2.47;1.48;;;24.20;60.90;;;;;;4946450;29;20433;-68
2021/09/16 02:33:56;;;;;;;2.00;1.33;;;24.20;60.90;;;;;;4946468;29;20410;-68
2021/09/16 02:36:21;;;;;;;2.50;1.30;;;24.10;60.80;;;;;;4946489;29;20405;-66
2021/09/16 02:38:47;;;;;;;2.20;1.40;;;24.20;60.90;;;;;;4946547;29;20416;-67
2021/09/16 02:41:13;;;;;;;2.03;1.42;;;24.10;60.80;;;;;;4946344;29;20445;-68
2021/09/16 02:43:39;;;;;;;2.15;1.45;;;24.10;60.80;;;;;;4945945;29;20879;-66
2021/09/16 02:46:04;;;;;;;1.77;1.35;;;24.10;60.90;;;;;;4946232;29;20429;-68
2021/09/16 02:48:30;;;;;;;1.70;1.25;;;24.10;60.80;;;;;;4946357;29;20410;-68
2021/09/16 02:50:56;;;;;;;1.70;1.30;;;24.10;60.90;;;;;;4946513;29;20404;-70
2021/09/16 02:53:21;;;;;;;1.90;1.23;;;24.10;60.80;;;;;;4944789;28;20410;-67
2021/09/16 02:55:47;;;;;;;1.80;1.40;;;24.10;60.80;;;;;;4945807;29;20398;-69
2021/09/16 02:58:13;;;;;;;1.67;1.30;;;24.10;60.80;;;;;;4946036;29;20406;-68
2021/09/16 03:00:38;;;;;;;2.43;1.40;;;24.10;60.80;;;;;;4946354;29;20445;-68
2021/09/16 03:03:06;;;;;;;1.42;1.10;;;24.10;60.90;;;;;;4945855;29;20508;-67
2021/09/16 03:05:32;;;;;;;2.00;1.40;;;24.00;60.80;;;;;;4945676;29;20806;-66
2021/09/16 03:07:58;;;;;;;2.83;1.50;;;24.10;60.90;;;;;;4950060;28;20803;-70
2021/09/16 03:10:23;;;;;;;2.00;1.30;;;24.10;60.90;;;;;;4945886;29;20957;-69
2021/09/16 03:12:49;;;;;;;1.85;1.27;;;24.10;60.80;;;;;;4945940;29;20412;-67
2021/09/16 03:15:15;;;;;;;1.63;1.20;;;24.00;60.80;;;;;;4945994;28;20897;-69
2021/09/16 03:17:42;;;;;;;1.75;1.20;;;24.00;60.80;;;;;;4945466;29;20406;-65
2021/09/16 03:20:09;;;;;;;1.90;1.30;;;24.10;60.90;;;;;;4945841;29;20401;-68
2021/09/16 03:22:35;;;;;;;1.75;1.20;;;24.00;60.80;;;;;;4934947;29;20965;-68
2021/09/16 03:25:02;;;;;;;1.77;1.30;;;24.10;60.80;;;;;;4945905;29;20409;-69
2021/09/16 03:27:28;;;;;;;1.80;1.25;;;24.10;60.80;;;;;;4960421;28;20394;-69
2021/09/16 03:29:53;;;;;;;1.80;1.10;;;24.00;60.80;;;;;;4945138;29;20406;-67
2021/09/16 03:32:19;;;;;;;1.73;1.20;;;24.10;60.80;;;;;;4945444;28;20394;-68
2021/09/16 03:34:45;;;;;;;1.93;1.20;;;24.10;61.40;;;;;;4944364;29;20432;-69
2021/09/16 03:37:10;;;;;;;2.05;1.30;;;24.10;60.80;;;;;;4945445;28;20398;-68
2021/09/16 03:39:36;;;;;;;1.37;1.00;;;24.10;60.90;;;;;;4944969;29;20501;-65
2021/09/16 03:42:02;;;;;;;1.70;1.05;;;24.10;60.80;;;;;;4945252;29;20468;-70
2021/09/16 03:44:27;;;;;;;1.50;1.07;;;24.00;60.80;;;;;;4945375;29;20422;-67
2021/09/16 03:46:53;;;;;;;1.40;1.10;;;24.00;60.80;;;;;;4945231;29;20390;-66
2021/09/16 03:49:19;;;;;;;1.70;0.97;;;24.00;60.80;;;;;;4945236;29;20433;-67
2021/09/16 03:51:45;;;;;;;1.58;1.08;;;24.10;60.80;;;;;;4944863;28;20502;-68
2021/09/16 03:54:11;;;;;;;2.00;1.02;;;23.90;60.70;;;;;;4945245;29;20489;-68
2021/09/16 03:56:36;;;;;;;1.60;1.10;;;24.00;60.80;;;;;;4945052;29;20398;-66
2021/09/16 03:59:02;;;;;;;1.55;1.00;;;24.00;60.80;;;;;;4944584;29;20404;-69
2021/09/16 04:01:28;;;;;;;1.40;0.97;;;24.00;60.80;;;;;;4930286;29;20437;-68
2021/09/16 04:03:54;;;;;;;2.03;1.33;;;24.00;60.80;;;;;;4944525;29;20426;-70
2021/09/16 04:06:19;;;;;;;2.17;1.27;;;24.00;60.80;;;;;;4944795;29;20541;-68
2021/09/16 04:08:45;;;;;;;1.80;1.30;;;24.00;60.80;;;;;;4945104;29;20976;-68
2021/09/16 04:11:11;;;;;;;1.80;1.00;;;24.00;60.80;;;;;;4944800;29;20398;-69
2021/09/16 04:13:36;;;;;;;2.53;1.10;;;24.00;60.80;;;;;;4944942;29;20422;-68
2021/09/16 04:16:02;;;;;;;1.60;1.00;;;24.00;60.80;;;;;;4944279;29;20758;-66
2021/09/16 04:18:27;;;;;;;1.83;1.10;;;24.00;60.80;;;;;;4944530;29;20414;-67
2021/09/16 04:20:53;;;;;;;1.70;1.00;;;24.00;60.80;;;;;;4944568;29;20397;-69
2021/09/16 04:23:19;;;;;;;3.60;1.30;;;24.00;60.90;;;;;;4944633;29;20806;-68
2021/09/16 04:25:45;;;;;;;2.22;1.10;;;24.00;61.40;;;;;;4944237;29;20394;-65
2021/09/16 04:28:10;;;;;;;1.30;0.98;;;24.00;60.80;;;;;;4944531;29;20556;-68
2021/09/16 04:30:36;;;;;;;1.88;1.00;;;23.90;60.80;;;;;;4944195;28;20408;-69
2021/09/16 04:33:02;;;;;;;1.67;1.10;;;24.00;60.80;;;;;;4942664;28;20414;-65
2021/09/16 04:35:27;;;;;;;1.47;1.00;;;24.00;60.80;;;;;;4944345;28;20408;-70
2021/09/16 04:37:53;;;;;;;1.20;0.90;;;24.00;60.80;;;;;;4944057;29;20398;-66
2021/09/16 04:40:19;;;;;;;1.60;1.10;;;24.00;60.80;;;;;;4944493;28;20407;-67
2021/09/16 04:42:45;;;;;;;3.03;1.00;;;24.00;60.80;;;;;;4944073;28;20414;-69
2021/09/16 04:45:12;;;;;;;2.22;1.02;;;23.90;61.10;;;;;;4944801;28;20406;-69
2021/09/16 04:47:40;;;;;;;1.67;0.90;;;24.00;61.30;;;;;;4943467;28;20854;-69
2021/09/16 04:50:15;;;;;;;2.38;1.08;;;24.00;62.30;;;;;;4898624;28;20906;-69
2021/09/16 04:52:41;;;;;;;1.50;1.00;;;24.00;62.10;;;;;;4950430;28;20417;-70
2021/09/16 04:55:07;;;;;;;1.80;1.00;;;24.10;62.70;;;;;;4950674;28;20409;-68
2021/09/16 04:57:33;;;;;;;2.30;1.10;;;24.10;62.40;;;;;;4950414;28;20457;-69
2021/09/16 04:59:59;;;;;;;2.70;1.00;;;24.10;62.50;;;;;;4950011;28;20401;-70
2021/09/16 05:02:24;;;;;;;1.90;1.10;;;24.00;60.30;;;;;;4950453;29;20440;-68
2021/09/16 05:04:50;;;;;;;4.43;1.40;;;24.00;60.20;;;;;;4965399;28;20456;-70
2021/09/16 05:07:16;;;;;;;2.53;1.00;;;24.00;60.40;;;;;;4959340;28;20410;-70
2021/09/16 05:09:41;;;;;;;2.27;1.00;;;23.90;60.40;;;;;;4951174;28;20923;-69
2021/09/16 05:12:07;;;;;;;3.22;1.25;;;23.90;60.50;;;;;;4950210;29;20452;-68
2021/09/16 05:14:33;;;;;;;2.80;0.90;;;23.90;59.60;;;;;;4964775;28;20495;-69
2021/09/16 05:16:58;;;;;;;3.08;1.00;;;23.90;59.90;;;;;;4965039;28;20417;-71
2021/09/16 05:19:24;;;;;;;3.10;1.08;;;24.00;59.60;;;;;;4950670;28;20488;-70
2021/09/16 05:21:50;;;;;;;3.20;0.90;;;24.00;60.00;;;;;;4949948;29;20415;-70
2021/09/16 05:24:18;;;;;;;3.00;0.93;;;24.00;60.10;;;;;;4950230;28;20433;-69
2021/09/16 05:26:45;;;;;;;2.95;0.93;;;24.00;60.20;;;;;;4950539;29;20409;-70
2021/09/16 05:29:11;;;;;;;1.65;1.00;;;24.00;60.30;;;;;;4950547;29;20406;-70
2021/09/16 05:31:37;;;;;;;3.30;1.25;;;24.00;60.50;;;;;;4950671;29;20502;-66
2021/09/16 05:34:03;;;;;;;3.43;1.43;;;24.10;60.60;;;;;;4949970;28;20413;-70
2021/09/16 05:36:29;;;;;;;2.95;1.45;;;24.00;60.50;;;;;;4950424;28;20900;-70
2021/09/16 05:38:54;;;;;;;7.47;2.10;;;24.00;61.00;;;;;;4950508;28;20398;-69
2021/09/16 05:41:21;;;;;;;5.40;2.28;;;24.00;61.00;;;;;;4950160;28;20404;-66
2021/09/16 05:43:46;;;;;;;5.05;2.20;;;24.00;60.80;;;;;;4950117;28;20433;-69
2021/09/16 05:46:12;;;;;;;7.43;2.43;;;24.00;61.00;;;;;;4949716;29;20400;-69
2021/09/16 05:48:39;;;;;;;4.57;2.35;;;24.00;61.00;;;;;;4950266;28;20408;-69
2021/09/16 05:51:04;;;;;;;4.88;2.40;;;24.00;61.10;;;;;;4950341;28;20446;-69
2021/09/16 05:53:30;;;;;;;6.57;2.33;;;24.00;61.20;;;;;;4950285;29;20499;-70
2021/09/16 05:55:56;;;;;;;7.03;2.20;;;24.00;61.50;;;;;;4949885;29;20390;-69
2021/09/16 05:58:21;;;;;;;6.03;2.23;;;24.00;61.50;;;;;;4950129;29;20753;-71
2021/09/16 06:00:47;;;;;;;4.85;2.10;;;24.00;61.60;;;;;;4949728;28;20942;-70
2021/09/16 06:03:12;;;;;;;6.63;2.07;;;24.00;61.50;;;;;;4947105;29;20421;-69
2021/09/16 06:05:38;;;;;;;4.93;1.92;;;24.00;61.60;;;;;;4947133;29;20414;-69
2021/09/16 06:08:04;;;;;;;6.30;1.87;;;24.00;62.10;;;;;;4947009;29;20529;-66
2021/09/16 06:10:31;;;;;;;4.05;1.65;;;24.00;61.70;;;;;;4946715;28;20489;-67
2021/09/16 06:13:01;;;;;;;5.30;2.10;;;24.00;61.70;;;;;;4947197;29;20492;-69
2021/09/16 06:15:28;;;;;;;6.28;1.90;;;23.90;61.50;;;;;;4932104;29;20434;-68
2021/09/16 06:17:53;;;;;;;6.18;1.50;;;23.90;61.70;;;;;;4946124;29;20823;-67
2021/09/16 06:20:19;;;;;;;3.40;1.53;;;23.90;61.60;;;;;;4947024;29;20397;-68
2021/09/16 06:22:46;;;;;;;4.93;2.22;;;23.90;61.90;;;;;;4946569;29;20406;-68
2021/09/16 06:25:15;;;;;;;5.93;2.40;;;23.90;62.30;;;;;;4947304;29;21245;-68
2021/09/16 06:27:42;;;;;;;5.47;2.40;;;23.90;62.70;;;;;;4946767;28;20461;-69
2021/09/16 06:30:09;;;;;;;4.93;1.80;;;23.90;62.30;;;;;;4946618;29;20822;-69
2021/09/16 06:32:37;;;;;;;6.40;1.98;;;23.90;62.30;;;;;;4946637;29;20444;-70
2021/09/16 06:35:04;;;;;;;5.25;2.17;;;23.90;62.20;;;;;;4946622;29;20690;-65
2021/09/16 06:37:29;;;;;;;5.72;2.40;;;23.80;62.60;;;;;;4946703;28;20390;-69
2021/09/16 06:39:55;;;;;;;6.30;2.10;;;23.80;62.20;;;;;;4946108;29;20398;-68
2021/09/16 06:42:21;;;;;;;5.88;2.38;;;23.80;62.60;;;;;;4946683;29;20888;-68
2021/09/16 06:44:46;;;;;;;4.40;2.00;;;23.80;63.20;;;;;;4946259;29;20515;-68
2021/09/16 06:47:12;;;;;;;4.30;1.95;;;23.80;62.70;;;;;;4946346;29;20398;-71
2021/09/16 06:49:45;;;;;;;4.60;1.60;;;23.80;64.20;;;;;;4946234;29;20409;-69
2021/09/16 06:52:11;;;;;;;3.90;1.40;;;23.80;63.40;;;;;;4946067;29;20476;-70
2021/09/16 06:54:37;;;;;;;2.83;1.30;;;23.80;63.60;;;;;;4945670;28;20492;-68
2021/09/16 06:57:02;;;;;;;3.63;1.30;;;23.80;63.90;;;;;;4946354;28;20977;-68
2021/09/16 06:59:28;;;;;;;2.50;1.30;;;23.80;63.80;;;;;;4945938;28;20390;-68
2021/09/16 07:01:54;;;;;;;3.33;1.50;;;23.80;63.10;;;;;;4945902;28;20405;-68
2021/09/16 07:04:19;;;;;;;11.17;1.90;;;23.80;63.20;;;;;;4945930;29;20489;-69
2021/09/16 07:06:45;;;;;;;7.37;1.80;;;23.80;63.10;;;;;;4945958;29;20416;-68
2021/09/16 07:09:11;;;;;;;9.55;1.60;;;23.80;63.10;;;;;;4946294;29;20461;-69
2021/09/16 07:11:36;;;;;;;6.63;1.50;;;23.70;63.50;;;;;;4945793;29;21187;-66
2021/09/16 07:14:02;;;;;;;4.13;1.50;;;23.70;64.00;;;;;;4944964;28;20404;-69
2021/09/16 07:16:28;;;;;;;6.97;1.60;;;23.80;64.40;;;;;;4945758;29;20394;-69
2021/09/16 07:18:54;;;;;;;4.57;1.63;;;23.80;64.30;;;;;;4945791;29;20469;-68
2021/09/16 07:21:19;;;;;;;4.03;1.53;;;23.80;63.80;;;;;;4945422;29;20390;-65
2021/09/16 07:23:45;;;;;;;5.45;2.13;;;23.80;64.70;;;;;;4945438;29;20480;-66
2021/09/16 07:26:11;;;;;;;5.57;1.90;;;23.80;65.20;;;;;;4959994;28;20425;-68
2021/09/16 07:28:37;;;;;;;6.68;1.95;;;23.90;65.40;;;;;;4960497;28;20925;-69
2021/09/16 07:31:04;;;;;;;5.65;1.98;;;23.90;64.90;;;;;;4933360;29;20453;-69
2021/09/16 07:33:31;;;;;;;8.30;2.00;;;23.90;64.90;;;;;;4945452;29;20386;-69
2021/09/16 07:35:56;;;;;;;7.38;2.30;;;24.00;64.80;;;;;;4945012;29;20446;-68
2021/09/16 07:38:22;;;;;;;7.23;2.07;;;24.20;64.70;;;;;;4945352;29;20435;-66
2021/09/16 07:40:48;;;;;;;5.35;1.80;;;24.30;64.50;;;;;;4945294;29;20402;-67
2021/09/16 07:43:13;;;;;;;5.57;1.90;;;24.30;64.30;;;;;;4945218;29;20545;-69
2021/09/16 07:45:39;;;;;;;7.03;1.90;;;24.20;64.30;;;;;;4945153;29;20393;-66
2021/09/16 07:48:05;;;;;;;8.57;2.40;;;24.30;65.00;;;;;;4944880;29;20835;-69
2021/09/16 07:50:31;;;;;;;11.27;2.60;;;24.30;65.20;;;;;;4944936;29;20482;-65
2021/09/16 07:52:56;;;;;;;9.75;2.50;;;24.30;65.80;;;;;;4945372;29;20414;-68
2021/09/16 07:55:22;;;;;;;13.05;3.65;;;24.30;66.20;;;;;;4945069;29;20761;-70
2021/09/16 07:57:48;;;;;;;14.63;4.40;;;24.50;67.00;;;;;;4944952;29;20754;-66
2021/09/16 08:00:14;;;;;;;13.27;4.55;;;24.40;67.40;;;;;;4944563;29;20438;-68
2021/09/16 08:02:47;;;;;;;17.17;4.32;;;24.60;68.30;;;;;;4945081;29;20421;-68
2021/09/16 08:05:13;;;;;;;15.70;4.07;;;24.70;67.20;;;;;;4944914;29;20408;-68
2021/09/16 08:07:39;;;;;;;12.25;3.72;;;24.60;67.70;;;;;;4944782;28;20407;-68
2021/09/16 08:10:05;;;;;;;18.93;4.70;;;24.60;68.60;;;;;;4944212;29;20406;-68
2021/09/16 08:12:31;;;;;;;25.67;7.28;;;24.70;69.50;;;;;;4944761;29;20767;-66
2021/09/16 08:14:57;;;;;;;29.95;8.77;;;24.80;70.70;;;;;;4944756;29;20454;-67
2021/09/16 08:17:22;;;;;;;102.80;59.90;;;24.80;71.10;;;;;;4959185;28;20476;-67
2021/09/16 08:19:48;;;;;;;165.35;105.30;;;25.00;71.40;;;;;;4944749;28;20413;-67
2021/09/16 08:22:14;;;;;;;163.67;109.37;;;25.00;72.70;;;;;;4944421;29;20406;-66
2021/09/16 08:24:40;;;;;;;193.60;123.63;;;25.10;74.70;;;;;;4945209;28;20425;-67
2021/09/16 08:27:06;;;;;;;184.43;125.33;;;25.10;72.90;;;;;;4944497;28;20454;-69
2021/09/16 08:29:32;;;;;;;177.90;123.05;;;25.10;72.90;;;;;;4950060;28;21001;-68
2021/09/16 08:31:57;;;;;;;165.95;116.57;;;25.20;72.70;;;;;;4947589;28;20827;-68
2021/09/16 08:34:25;;;;;;;192.20;136.23;;;25.20;72.30;;;;;;4944124;28;20397;-67
2021/09/16 08:36:51;;;;;;;210.18;148.27;;;25.30;71.90;;;;;;4944528;28;20882;-68
2021/09/16 08:39:17;;;;;;;202.68;144.48;;;25.20;72.20;;;;;;4944107;28;20434;-69
2021/09/16 08:41:43;;;;;;;237.77;162.60;;;25.30;71.70;;;;;;4944514;29;20905;-68
2021/09/16 08:44:10;;;;;;;208.35;138.93;;;25.70;73.40;;;;;;4943730;29;20465;-69
2021/09/16 08:46:35;;;;;;;168.38;96.93;;;25.70;70.30;;;;;;4944383;29;20409;-66
2021/09/16 08:49:01;;;;;;;180.05;107.90;;;25.60;69.10;;;;;;4944105;29;20492;-70
2021/09/16 08:51:28;;;;;;;192.10;125.40;;;25.60;70.20;;;;;;4943984;28;20493;-69
2021/09/16 08:53:54;;;;;;;187.85;130.88;;;25.60;70.90;;;;;;4944087;28;20393;-69
2021/09/16 08:56:21;;;;;;;204.32;153.05;;;25.70;71.40;;;;;;4943707;28;20394;-69
2021/09/16 08:58:47;;;;;;;224.90;179.30;;;25.70;72.00;;;;;;4942765;28;20428;-67
2021/09/16 09:01:15;;;;;;;238.23;197.25;;;25.70;72.10;;;;;;4944359;28;20485;-66
2021/09/16 09:03:42;;;;;;;231.75;197.90;;;25.70;71.50;;;;;;4944119;28;20430;-69
2021/09/16 09:06:43;;;;;;;233.52;198.60;;;25.70;71.20;;;;;;4943391;28;20431;-66
2021/09/16 09:09:20;;;;;;;186.18;154.55;;;25.70;71.10;;;;;;4884203;29;20424;-68
2021/09/16 09:11:49;;;;;;;147.40;130.23;;;25.80;71.40;;;;;;4936791;29;20394;-69
2021/09/16 09:14:24;;;;;;;133.68;113.15;;;25.80;70.40;;;;;;4943418;29;20862;-67
2021/09/16 09:16:50;;;;;;;107.88;90.72;;;25.80;70.20;;;;;;4948146;28;20442;-67
2021/09/16 09:19:17;;;;;;;81.00;67.70;;;25.80;69.00;;;;;;4943937;28;20398;-69
2021/09/16 09:21:45;;;;;;;65.53;52.65;;;25.80;68.50;;;;;;4943404;28;20508;-66
2021/09/16 09:24:11;;;;;;;56.45;42.10;;;25.70;67.60;;;;;;4943794;28;20436;-69
2021/09/16 09:26:39;;;;;;;52.25;36.13;;;25.70;67.30;;;;;;4942389;29;20398;-66
2021/09/16 09:29:08;;;;;;;47.85;30.95;;;25.70;66.70;;;;;;4944024;28;20890;-68
2021/09/16 09:31:41;;;;;;;36.17;23.40;;;25.60;66.00;;;;;;4944148;29;20433;-69
2021/09/16 09:34:30;;;;;;;29.88;18.95;;;25.60;65.30;;;;;;4943497;28;20393;-69
2021/09/16 09:37:12;;;;;;;25.25;15.45;;;25.70;64.90;;;;;;4946115;28;20879;-69
2021/09/16 09:39:39;;;;;;;21.58;12.27;;;25.60;65.00;;;;;;4947534;29;20405;-69
2021/09/16 09:42:23;;;;;;;21.30;10.07;;;25.50;64.90;;;;;;4946936;28;20931;-69
2021/09/16 09:44:52;;;;;;;18.20;8.77;;;25.50;65.40;;;;;;4947499;28;20436;-65
2021/09/16 09:47:38;;;;;;;18.00;7.93;;;25.40;64.90;;;;;;4947526;29;20393;-69
2021/09/16 09:50:14;;;;;;;17.55;6.65;;;25.40;64.70;;;;;;4946826;29;20488;-66
2021/09/16 09:52:40;;;;;;;15.65;5.63;;;25.30;64.40;;;;;;4947428;29;20382;-69
2021/09/16 09:55:15;;;;;;;16.65;5.05;;;25.30;64.20;;;;;;4947494;29;20402;-69
2021/09/16 09:57:42;;;;;;;11.27;4.40;;;25.30;64.00;;;;;;4947002;29;20736;-68
2021/09/16 10:00:11;;;;;;;11.00;3.78;;;25.20;63.70;;;;;;4946611;29;21014;-66
2021/09/16 10:02:44;;;;;;;13.90;3.92;;;25.10;63.50;;;;;;4947191;28;20966;-69
2021/09/16 10:05:27;;;;;;;16.77;4.40;;;25.10;63.50;;;;;;4947262;29;20874;-66
2021/09/16 10:07:54;;;;;;;16.15;4.00;;;25.10;63.60;;;;;;4947108;29;20878;-69
2021/09/16 10:10:21;;;;;;;14.13;3.70;;;25.10;63.60;;;;;;4946828;29;20724;-66
2021/09/16 10:12:48;;;;;;;13.68;3.58;;;25.10;63.90;;;;;;4946979;29;20878;-68
2021/09/16 10:15:20;;;;;;;16.30;4.10;;;25.10;63.90;;;;;;4946996;29;20436;-68
2021/09/16 10:17:47;;;;;;;18.95;8.88;;;25.10;63.90;;;;;;4946649;29;20413;-69
2021/09/16 10:20:16;;;;;;;42.53;17.73;;;25.10;64.50;;;;;;4946326;29;20405;-68
2021/09/16 10:22:49;;;;;;;46.70;17.73;;;25.20;65.50;;;;;;4946441;28;20386;-68
2021/09/16 10:25:16;;;;;;;62.50;22.98;;;25.20;66.20;;;;;;4961365;28;20417;-67
2021/09/16 10:27:55;;;;;;;76.50;22.67;;;25.30;67.00;;;;;;4946717;29;20393;-69
2021/09/16 10:30:23;;;;;;;109.38;29.50;;;25.30;68.00;;;;;;4938333;29;20406;-68
2021/09/16 10:33:11;;;;;;;102.32;24.67;;;25.40;68.80;;;;;;4946483;29;20481;-65
2021/09/16 10:35:44;;;;;;;107.27;23.07;;;25.50;68.90;;;;;;4946365;29;20417;-67
2021/09/16 10:38:21;;;;;;;156.02;34.90;;;25.60;67.80;;;;;;4945565;29;20390;-69
2021/09/16 10:40:48;;;;;;;158.68;37.97;;;25.60;69.90;;;;;;4945648;29;20410;-69
2021/09/16 10:43:22;;;;;;;232.25;49.75;;;25.70;70.00;;;;;;4946537;28;20421;-70
2021/09/16 10:45:49;;;;;;;247.93;58.30;;;25.80;71.60;;;;;;4946096;28;20767;-66
2021/09/16 10:48:17;;;;;;;223.27;51.05;;;25.80;72.30;;;;;;4945004;28;20421;-67
2021/09/16 11:28:59;;;;;;;10.50;4.20;;;26.30;65.70;;;;;;5109535;27;20366;-70
2021/09/16 11:31:25;;;;;;;11.50;4.22;;;25.20;65.10;;;;;;5109367;28;20396;-70
2021/09/16 11:34:07;;;;;;;10.55;3.85;;;25.20;64.80;;;;;;5108737;28;20477;-70
2021/09/16 11:36:32;;;;;;;8.07;3.30;;;25.10;64.70;;;;;;5076937;28;20919;-70
2021/09/16 11:39:15;;;;;;;8.60;3.80;;;25.10;64.50;;;;;;5088917;28;20395;-70
2021/09/16 11:41:41;;;;;;;8.50;2.97;;;25.10;64.40;;;;;;5088880;28;20856;-69
2021/09/16 11:44:08;;;;;;;9.23;3.53;;;25.00;64.50;;;;;;5088787;28;20394;-69
2021/09/16 11:46:34;;;;;;;6.75;2.92;;;25.00;64.50;;;;;;5088844;28;20394;-70
2021/09/16 11:49:03;;;;;;;6.93;3.93;;;25.00;64.70;;;;;;5088698;28;20379;-70
2021/09/16 11:51:29;;;;;;;9.02;5.97;;;25.00;64.80;;;;;;5088626;28;20426;-70
2021/09/16 11:53:55;;;;;;;10.38;6.38;;;25.00;64.10;;;;;;5104083;28;20383;-70
2021/09/16 11:56:20;;;;;;;12.13;6.53;;;25.00;65.20;;;;;;5088472;28;20749;-70
2021/09/16 11:58:46;;;;;;;12.70;5.50;;;24.90;65.40;;;;;;5088503;28;20391;-69
2021/09/16 12:01:16;;;;;;;8.55;4.00;;;24.90;65.60;;;;;;5088532;28;20384;-71
2021/09/16 12:03:46;;;;;;;9.57;3.80;;;24.80;65.40;;;;;;5097801;28;20762;-70
2021/09/16 12:06:16;;;;;;;8.88;3.60;;;24.80;65.60;;;;;;5107838;28;21112;-69
2021/09/16 12:08:51;;;;;;;10.63;3.42;;;24.80;65.70;;;;;;5106028;28;20389;-70
2021/09/16 12:11:28;;;;;;;11.57;3.30;;;24.80;65.90;;;;;;5105475;28;20461;-69
2021/09/16 12:13:57;;;;;;;9.65;2.78;;;24.80;65.40;;;;;;5105066;28;20447;-70
2021/09/16 12:16:25;;;;;;;8.95;2.85;;;24.80;65.50;;;;;;5107061;28;20496;-70
2021/09/16 12:18:58;;;;;;;8.25;2.70;;;24.80;65.10;;;;;;5104750;28;20480;-70
2021/09/16 12:21:32;;;;;;;9.48;2.40;;;24.90;65.50;;;;;;5107753;28;20855;-68
2021/09/16 12:24:10;;;;;;;9.23;2.92;;;25.00;65.40;;;;;;5106931;28;20795;-70
2021/09/16 12:26:38;;;;;;;6.53;2.40;;;25.00;66.10;;;;;;5103989;28;20378;-69
2021/09/16 12:29:08;;;;;;;5.50;2.20;;;25.00;65.80;;;;;;5077008;28;20398;-69
2021/09/16 12:31:39;;;;;;;5.40;2.30;;;25.00;65.70;;;;;;5090096;28;20381;-69
2021/09/16 12:34:11;;;;;;;5.15;2.30;;;24.90;64.80;;;;;;5093421;28;20398;-70
2021/09/16 12:36:50;;;;;;;5.30;2.38;;;24.80;64.90;;;;;;5092815;28;20405;-70
2021/09/16 12:39:16;;;;;;;6.20;2.88;;;24.80;65.10;;;;;;5092222;28;20440;-70
2021/09/16 12:42:08;;;;;;;5.68;2.53;;;24.70;66.00;;;;;;5093215;28;20378;-69
2021/09/16 12:44:37;;;;;;;6.03;2.30;;;24.70;65.80;;;;;;5092926;28;20394;-67
2021/09/16 12:47:15;;;;;;;6.53;2.50;;;24.70;65.60;;;;;;5092114;28;20382;-69
2021/09/16 12:49:41;;;;;;;7.67;2.33;;;24.70;65.40;;;;;;5092001;28;20417;-69
2021/09/16 12:52:25;;;;;;;6.10;2.30;;;24.70;65.60;;;;;;5093011;28;20867;-68
2021/09/16 12:55:01;;;;;;;4.67;2.40;;;24.70;64.90;;;;;;5090449;28;20379;-69
2021/09/16 12:57:36;;;;;;;7.27;2.70;;;24.70;65.60;;;;;;5074821;28;20414;-69
2021/09/16 13:00:22;;;;;;;7.15;2.15;;;24.70;65.20;;;;;;5093558;28;20382;-70
2021/09/16 13:02:58;;;;;;;5.78;2.53;;;24.70;65.40;;;;;;5092102;28;20496;-67
2021/09/16 13:05:33;;;;;;;9.45;2.30;;;24.70;65.20;;;;;;5092906;28;20382;-69
2021/09/16 13:08:25;;;;;;;5.72;2.17;;;24.70;65.80;;;;;;5091438;28;20390;-69
2021/09/16 13:10:52;;;;;;;6.90;2.00;;;24.70;66.00;;;;;;5087456;28;20944;-70
2021/09/16 13:13:26;;;;;;;28.90;3.95;;;24.60;65.90;;;;;;5092660;28;20425;-69
2021/09/16 13:15:53;;;;;;;42.92;4.65;;;24.60;65.50;;;;;;5090025;28;20451;-70
2021/09/16 13:18:19;;;;;;;26.60;3.90;;;24.60;65.80;;;;;;5094053;28;20442;-69
2021/09/16 13:20:46;;;;;;;26.42;4.10;;;24.50;65.60;;;;;;5087979;28;20386;-68